createdAt,value
2016-12-30T00:00:16.016Z,0
2016-12-30T00:00:56.628Z,0
2016-12-30T00:01:37.215Z,0
2016-12-30T00:02:17.817Z,0
2016-12-30T00:02:58.407Z,0
2016-12-30T00:03:38.994Z,0
2016-12-30T00:04:19.606Z,0
2016-12-30T00:05:00.184Z,0
2016-12-30T00:05:40.771Z,0
2016-12-30T00:06:21.359Z,0
2016-12-30T00:07:01.939Z,0
2016-12-30T00:07:42.522Z,0
2016-12-30T00:08:23.121Z,0
2016-12-30T00:09:03.716Z,0
2016-12-30T00:09:44.299Z,0
2016-12-30T00:10:24.882Z,0
2016-12-30T00:11:05.461Z,0
2016-12-30T00:11:46.052Z,0
2016-12-30T00:12:26.665Z,0
2016-12-30T00:13:07.230Z,0
2016-12-30T00:13:47.801Z,0
2016-12-30T00:14:28.387Z,0
2016-12-30T00:15:08.970Z,0
2016-12-30T00:15:49.556Z,0
2016-12-30T00:16:30.154Z,0
2016-12-30T00:17:10.763Z,0
2016-12-30T00:17:51.343Z,0
2016-12-30T00:18:31.924Z,0
2016-12-30T00:19:12.510Z,0
2016-12-30T00:19:53.099Z,0
2016-12-30T00:20:33.680Z,0
2016-12-30T00:21:14.266Z,0
2016-12-30T00:21:54.849Z,0
2016-12-30T00:22:35.437Z,0
2016-12-30T00:23:16.019Z,0
2016-12-30T00:23:56.614Z,0
2016-12-30T00:24:37.197Z,0
2016-12-30T00:25:17.784Z,0
2016-12-30T00:25:58.364Z,0
2016-12-30T00:26:38.954Z,0
2016-12-30T00:27:19.557Z,0
2016-12-30T00:28:00.143Z,0
2016-12-30T00:28:40.730Z,0
2016-12-30T00:29:21.319Z,0
2016-12-30T00:30:01.915Z,0
2016-12-30T00:30:42.507Z,0
2016-12-30T00:31:23.093Z,0
2016-12-30T00:32:03.683Z,0
2016-12-30T00:32:44.281Z,0
2016-12-30T00:33:24.869Z,0
2016-12-30T00:34:05.463Z,0
2016-12-30T00:34:46.047Z,0
2016-12-30T00:35:26.622Z,0
2016-12-30T00:36:07.210Z,0
2016-12-30T00:36:47.790Z,0
2016-12-30T00:37:28.377Z,0
2016-12-30T00:38:08.954Z,0
2016-12-30T00:38:49.535Z,0
2016-12-30T00:39:30.134Z,0
2016-12-30T00:40:10.738Z,0
2016-12-30T00:40:51.327Z,0
2016-12-30T00:41:31.939Z,0
2016-12-30T00:42:12.538Z,0
2016-12-30T00:42:53.136Z,0
2016-12-30T00:43:33.735Z,0
2016-12-30T00:44:14.335Z,0
2016-12-30T00:44:54.910Z,0
2016-12-30T00:45:35.491Z,0
2016-12-30T00:46:16.081Z,0
2016-12-30T00:46:56.689Z,0
2016-12-30T00:47:37.277Z,0
2016-12-30T00:48:17.864Z,0
2016-12-30T00:48:58.445Z,0
2016-12-30T00:49:39.035Z,0
2016-12-30T00:50:19.613Z,0
2016-12-30T00:51:00.204Z,0
2016-12-30T00:51:40.795Z,0
2016-12-30T00:52:21.376Z,0
2016-12-30T00:53:01.955Z,0
2016-12-30T00:53:42.541Z,0
2016-12-30T00:54:23.141Z,0
2016-12-30T00:55:03.718Z,0
2016-12-30T00:55:44.295Z,0
2016-12-30T00:56:24.873Z,0
2016-12-30T00:57:05.472Z,0
2016-12-30T00:57:46.062Z,0
2016-12-30T00:58:26.652Z,0
2016-12-30T00:59:07.231Z,0
2016-12-30T00:59:47.820Z,0
2016-12-30T01:00:28.398Z,0
2016-12-30T01:01:08.982Z,0
2016-12-30T01:01:49.568Z,0
2016-12-30T01:02:30.152Z,0
2016-12-30T01:03:10.750Z,0
2016-12-30T01:03:51.342Z,0
2016-12-30T01:04:31.959Z,0
2016-12-30T01:05:12.575Z,0
2016-12-30T01:05:53.153Z,0
2016-12-30T01:06:33.748Z,0
2016-12-30T01:07:14.346Z,0
2016-12-30T01:07:54.936Z,0
2016-12-30T01:08:35.513Z,0
2016-12-30T01:09:16.119Z,0
2016-12-30T01:09:56.701Z,0
2016-12-30T01:10:37.322Z,0
2016-12-30T01:11:17.896Z,0
2016-12-30T01:11:58.480Z,0
2016-12-30T01:12:39.063Z,0
2016-12-30T01:13:19.670Z,0
2016-12-30T01:14:00.254Z,0
2016-12-30T01:14:40.843Z,0
2016-12-30T01:15:21.431Z,0
2016-12-30T01:16:02.028Z,0
2016-12-30T01:16:42.620Z,0
2016-12-30T01:17:23.197Z,0
2016-12-30T01:18:03.793Z,0
2016-12-30T01:18:44.370Z,0
2016-12-30T01:19:24.948Z,0
2016-12-30T01:20:05.532Z,0
2016-12-30T01:20:46.116Z,0
2016-12-30T01:21:26.690Z,0
2016-12-30T01:22:07.273Z,0
2016-12-30T01:22:47.851Z,0
2016-12-30T01:23:28.450Z,0
2016-12-30T01:24:09.041Z,0
2016-12-30T01:24:49.629Z,0
2016-12-30T01:25:30.211Z,0
2016-12-30T01:26:10.806Z,0
2016-12-30T01:26:51.392Z,0
2016-12-30T01:27:31.973Z,0
2016-12-30T01:28:12.553Z,0
2016-12-30T01:28:53.139Z,0
2016-12-30T01:29:33.728Z,0
2016-12-30T01:30:14.316Z,0
2016-12-30T01:30:54.940Z,0
2016-12-30T01:31:35.526Z,0
2016-12-30T01:32:16.114Z,0
2016-12-30T01:32:56.712Z,0
2016-12-30T01:33:37.330Z,0
2016-12-30T01:34:17.919Z,0
2016-12-30T01:34:58.509Z,0
2016-12-30T01:35:39.085Z,0
2016-12-30T01:36:19.673Z,0
2016-12-30T01:37:00.259Z,0
2016-12-30T01:37:40.843Z,0
2016-12-30T01:38:21.462Z,0
2016-12-30T01:39:02.044Z,0
2016-12-30T01:39:42.662Z,0
2016-12-30T01:40:23.265Z,0
2016-12-30T01:41:03.848Z,0
2016-12-30T01:41:44.426Z,0
2016-12-30T01:42:25.014Z,0
2016-12-30T01:43:05.595Z,0
2016-12-30T01:43:46.183Z,0
2016-12-30T01:44:26.782Z,0
2016-12-30T01:45:07.379Z,0
2016-12-30T01:45:47.955Z,0
2016-12-30T01:46:28.549Z,0
2016-12-30T01:47:09.129Z,0
2016-12-30T01:47:49.742Z,0
2016-12-30T01:48:30.351Z,0
2016-12-30T01:49:10.930Z,0
2016-12-30T01:49:51.517Z,0
2016-12-30T01:50:32.093Z,0
2016-12-30T01:51:12.682Z,0
2016-12-30T01:51:53.267Z,0
2016-12-30T01:52:33.851Z,0
2016-12-30T01:53:14.434Z,0
2016-12-30T01:53:55.031Z,0
2016-12-30T01:54:35.619Z,0
2016-12-30T01:55:16.212Z,0
2016-12-30T01:55:56.792Z,0
2016-12-30T01:56:37.385Z,0
2016-12-30T01:57:17.980Z,0
2016-12-30T01:57:58.562Z,0
2016-12-30T01:58:39.143Z,0
2016-12-30T01:59:19.735Z,0
2016-12-30T02:00:00.320Z,0
2016-12-30T02:00:40.900Z,0
2016-12-30T02:01:21.500Z,0
2016-12-30T02:02:02.093Z,0
2016-12-30T02:02:42.675Z,0
2016-12-30T02:03:23.254Z,0
2016-12-30T02:04:03.840Z,0
2016-12-30T02:04:44.434Z,0
2016-12-30T02:05:25.037Z,0
2016-12-30T02:06:05.628Z,0
2016-12-30T02:06:46.204Z,0
2016-12-30T02:07:26.794Z,0
2016-12-30T02:08:07.387Z,0
2016-12-30T02:08:47.971Z,0
2016-12-30T02:09:28.552Z,0
2016-12-30T02:10:09.137Z,0
2016-12-30T02:10:49.732Z,0
2016-12-30T02:11:30.312Z,0
2016-12-30T02:12:10.899Z,0
2016-12-30T02:12:51.492Z,0
2016-12-30T02:13:32.098Z,0
2016-12-30T02:14:12.685Z,0
2016-12-30T02:14:53.270Z,0
2016-12-30T02:15:33.855Z,0
2016-12-30T02:16:14.440Z,0
2016-12-30T02:16:55.019Z,0
2016-12-30T02:17:35.621Z,0
2016-12-30T02:18:16.209Z,0
2016-12-30T02:18:56.789Z,0
2016-12-30T02:19:37.371Z,0
2016-12-30T02:20:17.958Z,0
2016-12-30T02:20:58.547Z,0
2016-12-30T02:21:39.157Z,0
2016-12-30T02:22:19.755Z,0
2016-12-30T02:23:00.360Z,0
2016-12-30T02:23:40.968Z,0
2016-12-30T02:24:21.560Z,0
2016-12-30T02:25:02.138Z,0
2016-12-30T02:25:42.723Z,0
2016-12-30T02:26:23.316Z,0
2016-12-30T02:27:03.910Z,0
2016-12-30T02:27:44.482Z,0
2016-12-30T02:28:25.065Z,0
2016-12-30T02:29:05.650Z,0
2016-12-30T02:29:46.244Z,0
2016-12-30T02:30:26.832Z,0
2016-12-30T02:31:07.454Z,0
2016-12-30T02:31:48.033Z,0
2016-12-30T02:32:28.631Z,0
2016-12-30T02:33:09.224Z,0
2016-12-30T02:33:49.805Z,0
2016-12-30T02:34:30.388Z,0
2016-12-30T02:35:10.994Z,0
2016-12-30T02:35:51.572Z,0
2016-12-30T02:36:32.154Z,0
2016-12-30T02:37:12.740Z,0
2016-12-30T02:37:53.329Z,0
2016-12-30T02:38:33.953Z,0
2016-12-30T02:39:14.573Z,0
2016-12-30T02:39:55.157Z,0
2016-12-30T02:40:35.761Z,0
2016-12-30T02:41:16.355Z,0
2016-12-30T02:41:56.942Z,0
2016-12-30T02:42:37.521Z,0
2016-12-30T02:43:18.111Z,0
2016-12-30T02:43:58.698Z,0
2016-12-30T02:44:39.278Z,0
2016-12-30T02:45:19.866Z,0
2016-12-30T02:46:00.445Z,0
2016-12-30T02:46:41.026Z,0
2016-12-30T02:47:21.623Z,0
2016-12-30T02:48:02.214Z,0
2016-12-30T02:48:42.804Z,0
2016-12-30T02:49:23.389Z,0
2016-12-30T02:50:03.991Z,0
2016-12-30T02:50:44.591Z,0
2016-12-30T02:51:25.196Z,0
2016-12-30T02:52:05.781Z,0
2016-12-30T02:52:46.360Z,0
2016-12-30T02:53:26.934Z,0
2016-12-30T02:54:07.530Z,0
2016-12-30T02:54:48.111Z,0
2016-12-30T02:55:28.694Z,0
2016-12-30T02:56:09.292Z,0
2016-12-30T02:56:49.886Z,0
2016-12-30T02:57:30.482Z,0
2016-12-30T02:58:11.067Z,0
2016-12-30T02:58:51.646Z,0
2016-12-30T02:59:32.241Z,0
2016-12-30T03:00:12.825Z,0
2016-12-30T03:00:53.406Z,0
2016-12-30T03:01:33.993Z,0
2016-12-30T03:02:14.569Z,0
2016-12-30T03:02:55.151Z,0
2016-12-30T03:03:35.746Z,0
2016-12-30T03:04:16.366Z,0
2016-12-30T03:04:56.951Z,0
2016-12-30T03:05:37.556Z,0
2016-12-30T03:06:18.141Z,0
2016-12-30T03:06:58.730Z,0
2016-12-30T03:07:39.314Z,0
2016-12-30T03:08:19.911Z,0
2016-12-30T03:09:00.489Z,0
2016-12-30T03:09:41.083Z,0
2016-12-30T03:10:21.683Z,0
2016-12-30T03:11:02.260Z,0
2016-12-30T03:11:42.870Z,0
2016-12-30T03:12:23.444Z,0
2016-12-30T03:13:04.041Z,0
2016-12-30T03:13:44.627Z,0
2016-12-30T03:14:25.220Z,0
2016-12-30T03:15:05.816Z,0
2016-12-30T03:15:46.405Z,0
2016-12-30T03:16:26.985Z,0
2016-12-30T03:17:07.573Z,0
2016-12-30T03:17:48.172Z,0
2016-12-30T03:18:28.764Z,0
2016-12-30T03:19:09.347Z,0
2016-12-30T03:19:49.933Z,0
2016-12-30T03:20:30.522Z,0
2016-12-30T03:21:11.109Z,0
2016-12-30T03:21:51.694Z,0
2016-12-30T03:22:32.272Z,0
2016-12-30T03:23:12.850Z,0
2016-12-30T03:23:53.440Z,0
2016-12-30T03:24:34.034Z,0
2016-12-30T03:25:14.612Z,0
2016-12-30T03:25:55.218Z,0
2016-12-30T03:26:35.797Z,0
2016-12-30T03:27:16.392Z,0
2016-12-30T03:27:56.983Z,0
2016-12-30T03:28:37.575Z,0
2016-12-30T03:29:18.155Z,0
2016-12-30T03:29:58.742Z,0
2016-12-30T03:30:39.335Z,0
2016-12-30T03:31:19.925Z,0
2016-12-30T03:32:00.503Z,0
2016-12-30T03:32:41.091Z,0
2016-12-30T03:33:21.680Z,0
2016-12-30T03:34:02.261Z,0
2016-12-30T03:34:42.851Z,0
2016-12-30T03:35:23.431Z,0
2016-12-30T03:36:04.012Z,0
2016-12-30T03:36:44.620Z,0
2016-12-30T03:37:25.230Z,0
2016-12-30T03:38:05.818Z,0
2016-12-30T03:38:46.415Z,0
2016-12-30T03:39:27.030Z,0
2016-12-30T03:40:07.615Z,0
2016-12-30T03:40:48.196Z,0
2016-12-30T03:41:28.772Z,0
2016-12-30T03:42:09.366Z,0
2016-12-30T03:42:49.951Z,0
2016-12-30T03:43:30.529Z,0
2016-12-30T03:44:11.127Z,0
2016-12-30T03:44:51.743Z,0
2016-12-30T03:45:32.338Z,0
2016-12-30T03:46:12.931Z,0
2016-12-30T03:46:53.526Z,0
2016-12-30T03:47:34.117Z,0
2016-12-30T03:48:14.704Z,0
2016-12-30T03:48:55.290Z,0
2016-12-30T03:49:35.900Z,0
2016-12-30T03:50:16.512Z,0
2016-12-30T03:50:57.109Z,0
2016-12-30T03:51:37.695Z,0
2016-12-30T03:52:18.312Z,0
2016-12-30T03:52:58.899Z,0
2016-12-30T03:53:39.507Z,0
2016-12-30T03:54:20.107Z,0
2016-12-30T03:55:00.711Z,0
2016-12-30T03:55:41.314Z,0
2016-12-30T03:56:21.913Z,0
2016-12-30T03:57:02.513Z,0
2016-12-30T03:57:43.126Z,0
2016-12-30T03:58:23.726Z,0
2016-12-30T03:59:04.321Z,0
2016-12-30T03:59:44.924Z,0
2016-12-30T04:00:25.523Z,0
2016-12-30T04:01:06.128Z,0
2016-12-30T04:01:46.735Z,0
2016-12-30T04:02:27.332Z,0
2016-12-30T04:03:07.936Z,0
2016-12-30T04:03:48.535Z,0
2016-12-30T04:04:29.132Z,0
2016-12-30T04:05:09.733Z,0
2016-12-30T04:05:50.304Z,0
2016-12-30T04:06:30.888Z,0
2016-12-30T04:07:11.493Z,0
2016-12-30T04:07:52.095Z,0
2016-12-30T04:08:32.713Z,0
2016-12-30T04:09:13.290Z,0
2016-12-30T04:09:53.888Z,0
2016-12-30T04:10:34.477Z,0
2016-12-30T04:11:15.056Z,0
2016-12-30T04:11:55.671Z,0
2016-12-30T04:12:36.262Z,0
2016-12-30T04:13:16.866Z,0
2016-12-30T04:13:57.451Z,0
2016-12-30T04:14:38.041Z,0
2016-12-30T04:15:18.657Z,0
2016-12-30T04:15:59.259Z,0
2016-12-30T04:16:39.859Z,0
2016-12-30T04:17:20.462Z,0
2016-12-30T04:18:01.074Z,0
2016-12-30T04:18:41.704Z,0
2016-12-30T04:19:22.289Z,0
2016-12-30T04:20:02.884Z,0
2016-12-30T04:20:43.476Z,0
2016-12-30T04:21:24.064Z,0
2016-12-30T04:22:04.663Z,0
2016-12-30T04:22:45.252Z,0
2016-12-30T04:23:25.861Z,0
2016-12-30T04:24:06.468Z,0
2016-12-30T04:24:47.063Z,0
2016-12-30T04:25:27.659Z,0
2016-12-30T04:26:08.249Z,0
2016-12-30T04:26:48.868Z,0
2016-12-30T04:27:29.454Z,0
2016-12-30T04:28:10.059Z,0
2016-12-30T04:28:50.651Z,0
2016-12-30T04:29:31.237Z,0
2016-12-30T04:30:11.819Z,0
2016-12-30T04:30:52.405Z,0
2016-12-30T04:31:32.993Z,0
2016-12-30T04:32:13.605Z,0
2016-12-30T04:32:54.202Z,0
2016-12-30T04:33:34.792Z,0
2016-12-30T04:34:15.397Z,0
2016-12-30T04:34:55.985Z,0
2016-12-30T04:35:36.584Z,0
2016-12-30T04:36:17.169Z,0
2016-12-30T04:36:57.751Z,0
2016-12-30T04:37:38.358Z,0
2016-12-30T04:38:18.964Z,0
2016-12-30T04:38:59.574Z,0
2016-12-30T04:39:40.147Z,0
2016-12-30T04:40:20.737Z,0
2016-12-30T04:41:01.335Z,0
2016-12-30T04:41:41.918Z,0
2016-12-30T04:42:22.523Z,0
2016-12-30T04:43:03.108Z,0
2016-12-30T04:43:43.705Z,0
2016-12-30T04:44:24.311Z,0
2016-12-30T04:45:04.888Z,0
2016-12-30T04:45:45.477Z,0
2016-12-30T04:46:26.068Z,0
2016-12-30T04:47:06.661Z,0
2016-12-30T04:47:47.252Z,0
2016-12-30T04:48:27.830Z,0
2016-12-30T04:49:08.422Z,0
2016-12-30T04:49:49.014Z,0
2016-12-30T04:50:29.616Z,0
2016-12-30T04:51:10.192Z,0
2016-12-30T04:51:50.777Z,0
2016-12-30T04:52:31.372Z,0
2016-12-30T04:53:11.956Z,0
2016-12-30T04:53:52.538Z,0
2016-12-30T04:54:33.141Z,0
2016-12-30T04:55:13.741Z,0
2016-12-30T04:55:54.346Z,0
2016-12-30T04:56:34.933Z,0
2016-12-30T04:57:15.534Z,0
2016-12-30T04:57:56.112Z,0
2016-12-30T04:58:36.707Z,0
2016-12-30T04:59:17.290Z,0
2016-12-30T04:59:57.855Z,0
2016-12-30T05:00:38.448Z,0
2016-12-30T05:01:19.040Z,0
2016-12-30T05:01:59.617Z,0
2016-12-30T05:02:40.194Z,0
2016-12-30T05:03:20.819Z,0
2016-12-30T05:04:01.402Z,0
2016-12-30T05:04:41.981Z,0
2016-12-30T05:05:22.562Z,0
2016-12-30T05:06:03.162Z,0
2016-12-30T05:06:43.758Z,0
2016-12-30T05:07:24.353Z,0
2016-12-30T05:08:04.948Z,0
2016-12-30T05:08:45.523Z,0
2016-12-30T05:09:26.097Z,0
2016-12-30T05:10:06.685Z,0
2016-12-30T05:10:47.277Z,0
2016-12-30T05:11:27.885Z,0
2016-12-30T05:12:08.483Z,0
2016-12-30T05:12:49.075Z,0
2016-12-30T05:13:29.693Z,0
2016-12-30T05:14:10.288Z,0
2016-12-30T05:14:50.888Z,0
2016-12-30T05:15:31.465Z,0
2016-12-30T05:16:12.060Z,0
2016-12-30T05:16:52.646Z,0
2016-12-30T05:17:33.238Z,0
2016-12-30T05:18:13.844Z,0
2016-12-30T05:18:54.445Z,0
2016-12-30T05:19:35.042Z,0
2016-12-30T05:20:15.624Z,0
2016-12-30T05:20:56.215Z,0
2016-12-30T05:21:36.797Z,0
2016-12-30T05:22:17.383Z,0
2016-12-30T05:22:57.960Z,0
2016-12-30T05:23:38.559Z,0
2016-12-30T05:24:19.139Z,0
2016-12-30T05:24:59.721Z,0
2016-12-30T05:25:40.310Z,0
2016-12-30T05:26:20.897Z,0
2016-12-30T05:27:01.474Z,0
2016-12-30T05:27:42.068Z,0
2016-12-30T05:28:22.651Z,0
2016-12-30T05:29:03.234Z,0
2016-12-30T05:29:43.823Z,0
2016-12-30T05:30:24.413Z,0
2016-12-30T05:31:05.003Z,0
2016-12-30T05:31:45.587Z,0
2016-12-30T05:32:26.174Z,0
2016-12-30T05:33:06.747Z,0
2016-12-30T05:33:47.330Z,0
2016-12-30T05:34:27.917Z,0
2016-12-30T05:35:08.500Z,0
2016-12-30T05:35:49.093Z,0
2016-12-30T05:36:29.670Z,0
2016-12-30T05:37:10.279Z,0
2016-12-30T05:37:50.874Z,0
2016-12-30T05:38:31.472Z,0
2016-12-30T05:39:12.041Z,0
2016-12-30T05:39:52.623Z,0
2016-12-30T05:40:33.212Z,0
2016-12-30T05:41:13.797Z,0
2016-12-30T05:41:54.369Z,0
2016-12-30T05:42:34.967Z,0
2016-12-30T05:43:15.551Z,0
2016-12-30T05:43:56.132Z,0
2016-12-30T05:44:36.710Z,0
2016-12-30T05:45:17.304Z,0
2016-12-30T05:45:57.909Z,0
2016-12-30T05:46:38.503Z,0
2016-12-30T05:47:19.090Z,0
2016-12-30T05:47:59.667Z,0
2016-12-30T05:48:40.255Z,0
2016-12-30T05:49:20.831Z,0
2016-12-30T05:50:01.414Z,0
2016-12-30T05:50:41.999Z,0
2016-12-30T05:51:22.590Z,0
2016-12-30T05:52:03.188Z,0
2016-12-30T05:52:43.781Z,0
2016-12-30T05:53:24.367Z,0
2016-12-30T05:54:04.952Z,0
2016-12-30T05:54:45.535Z,0
2016-12-30T05:55:26.139Z,0
2016-12-30T05:56:06.726Z,0
2016-12-30T05:56:47.347Z,0
2016-12-30T05:57:27.946Z,0
2016-12-30T05:58:08.555Z,0
2016-12-30T05:58:49.159Z,0
2016-12-30T05:59:29.746Z,0
2016-12-30T06:00:10.334Z,0
2016-12-30T06:00:50.923Z,0
2016-12-30T06:01:31.528Z,0
2016-12-30T06:02:12.123Z,0
2016-12-30T06:02:52.731Z,0
2016-12-30T06:03:33.318Z,0
2016-12-30T06:04:13.899Z,0
2016-12-30T06:04:54.485Z,0
2016-12-30T06:05:35.076Z,0
2016-12-30T06:06:15.679Z,0
2016-12-30T06:06:56.280Z,0
2016-12-30T06:07:36.891Z,0
2016-12-30T06:08:17.480Z,0
2016-12-30T06:08:58.089Z,0
2016-12-30T06:09:38.685Z,0
2016-12-30T06:10:19.300Z,0
2016-12-30T06:10:59.883Z,0
2016-12-30T06:11:40.458Z,0
2016-12-30T06:12:21.043Z,0
2016-12-30T06:13:01.628Z,0
2016-12-30T06:13:42.215Z,0
2016-12-30T06:14:22.808Z,0
2016-12-30T06:15:03.390Z,0
2016-12-30T06:15:43.980Z,0
2016-12-30T06:16:24.565Z,0
2016-12-30T06:17:05.144Z,0
2016-12-30T06:17:45.745Z,0
2016-12-30T06:18:26.321Z,0
2016-12-30T06:19:06.899Z,0
2016-12-30T06:19:47.482Z,0
2016-12-30T06:20:28.068Z,0
2016-12-30T06:21:08.662Z,0
2016-12-30T06:21:49.260Z,0
2016-12-30T06:22:29.858Z,0
2016-12-30T06:23:10.437Z,0
2016-12-30T06:23:51.013Z,0
2016-12-30T06:24:31.617Z,0
2016-12-30T06:25:12.200Z,0
2016-12-30T06:25:52.785Z,0
2016-12-30T06:26:33.360Z,0
2016-12-30T06:27:13.938Z,0
2016-12-30T06:27:54.532Z,0
2016-12-30T06:28:35.105Z,0
2016-12-30T06:29:15.689Z,0
2016-12-30T06:29:56.278Z,0
2016-12-30T06:30:36.880Z,0
2016-12-30T06:31:17.477Z,0
2016-12-30T06:31:58.083Z,0
2016-12-30T06:32:38.682Z,0
2016-12-30T06:33:19.285Z,0
2016-12-30T06:33:59.886Z,0
2016-12-30T06:34:40.504Z,0
2016-12-30T06:35:21.097Z,0
2016-12-30T06:36:01.711Z,0
2016-12-30T06:36:42.305Z,0
2016-12-30T06:37:22.876Z,0
2016-12-30T06:38:03.458Z,0
2016-12-30T06:38:44.049Z,0
2016-12-30T06:39:24.660Z,0
2016-12-30T06:40:05.245Z,0
2016-12-30T06:40:45.839Z,0
2016-12-30T06:41:26.421Z,0
2016-12-30T06:42:07.015Z,0
2016-12-30T06:42:47.588Z,0
2016-12-30T06:43:28.169Z,0
2016-12-30T06:44:08.774Z,0
2016-12-30T06:44:49.355Z,0
2016-12-30T06:45:29.954Z,0
2016-12-30T06:46:10.569Z,0
2016-12-30T06:46:51.147Z,0
2016-12-30T06:47:31.738Z,0
2016-12-30T06:48:12.323Z,0
2016-12-30T06:48:52.904Z,0
2016-12-30T06:49:33.514Z,0
2016-12-30T06:50:14.077Z,0
2016-12-30T06:50:54.684Z,0
2016-12-30T06:51:35.284Z,0
2016-12-30T06:52:15.872Z,0
2016-12-30T06:52:56.449Z,0
2016-12-30T06:53:37.032Z,0
2016-12-30T06:54:17.632Z,0
2016-12-30T06:54:58.204Z,0
2016-12-30T06:55:38.829Z,0
2016-12-30T06:56:19.405Z,0
2016-12-30T06:57:00.002Z,0
2016-12-30T06:57:40.599Z,0
2016-12-30T06:58:21.194Z,0
2016-12-30T06:59:01.797Z,0
2016-12-30T06:59:42.384Z,0
2016-12-30T07:00:22.978Z,0
2016-12-30T07:01:03.551Z,0
2016-12-30T07:01:44.137Z,0
2016-12-30T07:02:24.741Z,0
2016-12-30T07:03:05.323Z,0
2016-12-30T07:03:45.903Z,0
2016-12-30T07:04:26.496Z,0
2016-12-30T07:05:07.078Z,0
2016-12-30T07:05:47.670Z,0
2016-12-30T07:06:28.271Z,0
2016-12-30T07:07:08.856Z,0
2016-12-30T07:07:49.439Z,0
2016-12-30T07:08:30.031Z,0
2016-12-30T07:09:10.612Z,0
2016-12-30T07:09:51.198Z,0
2016-12-30T07:10:31.794Z,0
2016-12-30T07:11:12.404Z,0
2016-12-30T07:11:53.015Z,0
2016-12-30T07:12:33.601Z,0
2016-12-30T07:13:14.192Z,0
2016-12-30T07:13:54.790Z,0
2016-12-30T07:14:35.387Z,0
2016-12-30T07:15:16.003Z,0
2016-12-30T07:15:56.587Z,0
2016-12-30T07:16:37.181Z,0
2016-12-30T07:17:17.779Z,0
2016-12-30T07:17:58.384Z,0
2016-12-30T07:18:38.977Z,4
2016-12-30T07:19:19.575Z,4
2016-12-30T07:20:00.154Z,4
2016-12-30T07:20:40.734Z,4
2016-12-30T07:21:21.330Z,0
2016-12-30T07:22:01.929Z,0
2016-12-30T07:22:42.513Z,0
2016-12-30T07:23:23.114Z,0
2016-12-30T07:24:03.707Z,0
2016-12-30T07:24:44.298Z,0
2016-12-30T07:25:24.891Z,4
2016-12-30T07:26:05.476Z,0
2016-12-30T07:26:46.078Z,4
2016-12-30T07:27:26.674Z,4
2016-12-30T07:28:07.270Z,4
2016-12-30T07:28:47.860Z,4
2016-12-30T07:29:28.451Z,4
2016-12-30T07:30:09.039Z,4
2016-12-30T07:30:49.625Z,4
2016-12-30T07:31:30.221Z,4
2016-12-30T07:32:10.814Z,0
2016-12-30T07:32:51.415Z,4
2016-12-30T07:33:31.997Z,4
2016-12-30T07:34:12.584Z,4
2016-12-30T07:34:53.167Z,4
2016-12-30T07:35:33.752Z,4
2016-12-30T07:36:14.354Z,4
2016-12-30T07:36:54.967Z,4
2016-12-30T07:37:35.563Z,8
2016-12-30T07:38:16.158Z,4
2016-12-30T07:38:56.760Z,8
2016-12-30T07:39:37.358Z,4
2016-12-30T07:40:17.959Z,8
2016-12-30T07:40:58.546Z,8
2016-12-30T07:41:39.131Z,8
2016-12-30T07:42:19.742Z,8
2016-12-30T07:43:00.323Z,8
2016-12-30T07:43:40.921Z,8
2016-12-30T07:44:21.522Z,8
2016-12-30T07:45:02.103Z,8
2016-12-30T07:45:42.696Z,8
2016-12-30T07:46:23.291Z,8
2016-12-30T07:47:03.884Z,8
2016-12-30T07:47:44.476Z,8
2016-12-30T07:48:25.067Z,12
2016-12-30T07:49:05.650Z,8
2016-12-30T07:49:46.247Z,8
2016-12-30T07:50:26.855Z,8
2016-12-30T07:51:07.449Z,8
2016-12-30T07:51:48.043Z,8
2016-12-30T07:52:28.645Z,8
2016-12-30T07:53:09.231Z,12
2016-12-30T07:53:49.822Z,12
2016-12-30T07:54:30.400Z,12
2016-12-30T07:55:10.986Z,8
2016-12-30T07:55:51.578Z,8
2016-12-30T07:56:32.176Z,12
2016-12-30T07:57:12.770Z,12
2016-12-30T07:57:53.353Z,12
2016-12-30T07:58:33.961Z,12
2016-12-30T07:59:14.544Z,16
2016-12-30T07:59:55.141Z,16
2016-12-30T08:00:35.779Z,20
2016-12-30T08:01:16.373Z,16
2016-12-30T08:01:56.998Z,16
2016-12-30T08:02:37.592Z,16
2016-12-30T08:03:18.185Z,12
2016-12-30T08:03:58.774Z,16
2016-12-30T08:04:39.372Z,16
2016-12-30T08:05:19.965Z,16
2016-12-30T08:06:00.579Z,12
2016-12-30T08:06:41.166Z,12
2016-12-30T08:07:21.770Z,12
2016-12-30T08:08:02.341Z,12
2016-12-30T08:08:42.921Z,16
2016-12-30T08:09:23.504Z,16
2016-12-30T08:10:04.105Z,16
2016-12-30T08:10:44.726Z,12
2016-12-30T08:11:25.331Z,12
2016-12-30T08:12:05.914Z,16
2016-12-30T08:12:46.506Z,16
2016-12-30T08:13:27.103Z,20
2016-12-30T08:14:07.684Z,16
2016-12-30T08:14:48.278Z,20
2016-12-30T08:15:28.883Z,20
2016-12-30T08:16:09.465Z,24
2016-12-30T08:16:50.083Z,24
2016-12-30T08:17:30.668Z,24
2016-12-30T08:18:11.268Z,28
2016-12-30T08:18:51.869Z,28
2016-12-30T08:19:32.480Z,28
2016-12-30T08:20:13.087Z,24
2016-12-30T08:20:53.671Z,24
2016-12-30T08:21:34.259Z,28
2016-12-30T08:22:14.856Z,28
2016-12-30T08:22:55.454Z,32
2016-12-30T08:23:36.073Z,28
2016-12-30T08:24:16.669Z,32
2016-12-30T08:24:57.257Z,32
2016-12-30T08:25:37.847Z,32
2016-12-30T08:26:18.421Z,28
2016-12-30T08:26:59.019Z,32
2016-12-30T08:27:39.617Z,32
2016-12-30T08:28:20.207Z,32
2016-12-30T08:29:00.786Z,32
2016-12-30T08:29:41.398Z,32
2016-12-30T08:30:22.004Z,32
2016-12-30T08:31:02.624Z,28
2016-12-30T08:31:43.214Z,28
2016-12-30T08:32:23.812Z,20
2016-12-30T08:33:04.394Z,20
2016-12-30T08:33:44.987Z,24
2016-12-30T08:34:25.589Z,24
2016-12-30T08:35:06.188Z,24
2016-12-30T08:35:46.785Z,24
2016-12-30T08:36:27.375Z,32
2016-12-30T08:37:07.977Z,36
2016-12-30T08:37:48.585Z,36
2016-12-30T08:38:29.173Z,28
2016-12-30T08:39:09.746Z,32
2016-12-30T08:39:50.347Z,36
2016-12-30T08:40:30.951Z,40
2016-12-30T08:41:11.548Z,36
2016-12-30T08:41:52.148Z,36
2016-12-30T08:42:32.741Z,36
2016-12-30T08:43:13.339Z,36
2016-12-30T08:43:53.962Z,36
2016-12-30T08:44:34.541Z,36
2016-12-30T08:45:15.130Z,40
2016-12-30T08:45:55.726Z,36
2016-12-30T08:46:36.323Z,40
2016-12-30T08:47:16.914Z,40
2016-12-30T08:47:57.499Z,36
2016-12-30T08:48:38.097Z,36
2016-12-30T08:49:18.689Z,32
2016-12-30T08:49:59.274Z,32
2016-12-30T08:50:39.900Z,28
2016-12-30T08:51:20.494Z,28
2016-12-30T08:52:01.096Z,36
2016-12-30T08:52:41.700Z,36
2016-12-30T08:53:22.287Z,28
2016-12-30T08:54:02.869Z,28
2016-12-30T08:54:43.464Z,28
2016-12-30T08:55:24.064Z,28
2016-12-30T08:56:04.656Z,28
2016-12-30T08:56:45.258Z,24
2016-12-30T08:57:25.842Z,24
2016-12-30T08:58:06.447Z,32
2016-12-30T08:58:47.046Z,36
2016-12-30T08:59:27.636Z,40
2016-12-30T09:00:08.231Z,36
2016-12-30T09:00:48.814Z,36
2016-12-30T09:01:29.399Z,40
2016-12-30T09:02:09.983Z,40
2016-12-30T09:02:50.579Z,44
2016-12-30T09:03:31.172Z,44
2016-12-30T09:04:11.771Z,40
2016-12-30T09:04:52.370Z,40
2016-12-30T09:05:32.955Z,36
2016-12-30T09:06:13.539Z,32
2016-12-30T09:06:54.137Z,28
2016-12-30T09:07:34.735Z,28
2016-12-30T09:08:15.324Z,24
2016-12-30T09:08:55.910Z,28
2016-12-30T09:09:36.487Z,28
2016-12-30T09:10:17.097Z,28
2016-12-30T09:10:57.689Z,24
2016-12-30T09:11:38.286Z,24
2016-12-30T09:12:18.877Z,28
2016-12-30T09:12:59.490Z,24
2016-12-30T09:13:40.103Z,28
2016-12-30T09:14:20.707Z,28
2016-12-30T09:15:01.301Z,32
2016-12-30T09:15:41.896Z,36
2016-12-30T09:16:22.470Z,40
2016-12-30T09:17:03.086Z,40
2016-12-30T09:17:43.648Z,36
2016-12-30T09:18:24.247Z,36
2016-12-30T09:19:04.844Z,36
2016-12-30T09:19:45.426Z,36
2016-12-30T09:20:26.015Z,32
2016-12-30T09:21:06.616Z,36
2016-12-30T09:21:48.204Z,36
2016-12-30T09:22:28.818Z,40
2016-12-30T09:23:09.431Z,44
2016-12-30T09:23:50.023Z,44
2016-12-30T09:24:30.612Z,44
2016-12-30T09:25:11.206Z,48
2016-12-30T09:25:51.818Z,52
2016-12-30T09:26:32.430Z,44
2016-12-30T09:27:13.031Z,52
2016-12-30T09:27:53.619Z,52
2016-12-30T09:28:34.232Z,52
2016-12-30T09:29:14.825Z,52
2016-12-30T09:29:55.432Z,52
2016-12-30T09:30:36.035Z,48
2016-12-30T09:31:16.633Z,44
2016-12-30T09:31:57.231Z,44
2016-12-30T09:32:37.843Z,48
2016-12-30T09:33:18.436Z,44
2016-12-30T09:33:59.052Z,44
2016-12-30T09:34:39.640Z,40
2016-12-30T09:35:20.233Z,44
2016-12-30T09:36:00.816Z,40
2016-12-30T09:36:41.397Z,44
2016-12-30T09:37:21.998Z,40
2016-12-30T09:38:02.595Z,32
2016-12-30T09:38:43.185Z,36
2016-12-30T09:39:23.774Z,32
2016-12-30T09:40:04.395Z,32
2016-12-30T09:40:45.009Z,32
2016-12-30T09:41:25.613Z,32
2016-12-30T09:42:06.203Z,28
2016-12-30T09:42:46.801Z,28
2016-12-30T09:43:27.378Z,32
2016-12-30T09:44:07.987Z,32
2016-12-30T09:44:48.580Z,32
2016-12-30T09:45:29.167Z,36
2016-12-30T09:46:09.760Z,40
2016-12-30T09:46:50.359Z,40
2016-12-30T09:47:30.956Z,44
2016-12-30T09:48:11.559Z,40
2016-12-30T09:48:52.169Z,40
2016-12-30T09:49:32.774Z,44
2016-12-30T09:50:13.370Z,40
2016-12-30T09:50:53.984Z,44
2016-12-30T09:51:34.566Z,40
2016-12-30T09:52:15.149Z,32
2016-12-30T09:52:55.742Z,32
2016-12-30T09:53:36.346Z,36
2016-12-30T09:54:16.932Z,32
2016-12-30T09:54:57.532Z,40
2016-12-30T09:55:38.112Z,36